createdAt,value
2022-10-03T00:00:43.213Z,19.76
2022-10-03T00:03:58.307Z,20.27
2022-10-03T00:07:16.542Z,20.20
2022-10-03T00:10:28.918Z,20.71
2022-10-03T00:13:41.659Z,19.62
2022-10-03T00:16:49.898Z,19.42
2022-10-03T00:20:03.891Z,18.38
2022-10-03T00:23:12.384Z,18.06
2022-10-03T00:26:30.773Z,18.68
2022-10-03T00:30:02.938Z,18.94
2022-10-03T00:33:17.345Z,19.44
2022-10-03T00:36:27.125Z,19.78
2022-10-03T00:39:50.580Z,19.93
2022-10-03T00:43:15.958Z,19.45
2022-10-03T00:46:54.060Z,19.72
2022-10-03T00:50:20.772Z,19.49
2022-10-03T00:53:37.923Z,19.59
2022-10-03T00:56:55.911Z,19.99
2022-10-03T01:00:17.744Z,20.49
2022-10-03T01:03:40.638Z,19.75
2022-10-03T01:06:50.248Z,19.54
2022-10-03T01:10:09.530Z,19.78
2022-10-03T01:13:32.666Z,19.73
2022-10-03T01:16:45.592Z,20.39
2022-10-03T01:20:08.480Z,20.63
2022-10-03T01:23:47.080Z,20.16
2022-10-03T01:27:02.694Z,19.41
2022-10-03T01:30:24.861Z,20.00
2022-10-03T01:33:35.060Z,20.44
2022-10-03T01:36:46.488Z,19.86
2022-10-03T01:39:55.476Z,19.43
2022-10-03T01:43:07.297Z,19.33
2022-10-03T01:46:18.968Z,19.66
2022-10-03T01:49:28.217Z,19.54
2022-10-03T01:52:40.171Z,18.63
2022-10-03T01:55:50.748Z,18.47
2022-10-03T01:59:01.040Z,18.83
2022-10-03T02:02:11.243Z,18.73
2022-10-03T02:05:20.627Z,18.28
2022-10-03T02:08:33.654Z,18.89
2022-10-03T02:11:40.724Z,19.25
2022-10-03T02:14:55.582Z,19.59
2022-10-03T02:18:13.078Z,19.91
2022-10-03T02:21:20.583Z,20.27
2022-10-03T02:24:38.510Z,20.81
2022-10-03T02:28:04.417Z,20.88
2022-10-03T02:31:44.910Z,20.39
2022-10-03T02:35:14.998Z,20.52
2022-10-03T02:38:48.207Z,19.92
2022-10-03T02:42:25.179Z,21.21
2022-10-03T02:45:51.481Z,21.73
2022-10-03T02:49:14.660Z,21.42
2022-10-03T02:52:46.063Z,20.65
2022-10-03T02:56:28.141Z,17.30
2022-10-03T02:59:56.207Z,16.96
2022-10-03T03:03:43.275Z,17.08
2022-10-03T03:06:59.508Z,17.55
2022-10-03T03:10:34.246Z,17.64
2022-10-03T03:14:02.224Z,17.32
2022-10-03T03:17:21.742Z,17.87
2022-10-03T03:20:41.218Z,17.34
2022-10-03T03:24:03.074Z,17.84
2022-10-03T03:27:35.196Z,17.06
2022-10-03T03:30:45.726Z,16.40
2022-10-03T03:34:00.056Z,16.38
2022-10-03T03:37:10.298Z,15.48
2022-10-03T03:40:32.376Z,16.08
2022-10-03T03:43:45.356Z,16.30
2022-10-03T03:47:05.363Z,16.53
2022-10-03T03:50:28.077Z,17.12
2022-10-03T03:53:55.278Z,17.51
2022-10-03T03:57:14.410Z,17.92
2022-10-03T04:00:21.877Z,18.00
2022-10-03T04:03:45.649Z,17.75
2022-10-03T04:06:58.244Z,17.94
2022-10-03T04:10:22.696Z,17.93
2022-10-03T04:13:40.395Z,17.65
2022-10-03T04:17:16.288Z,17.02
2022-10-03T04:20:36.918Z,17.70
2022-10-03T04:23:58.159Z,17.50
2022-10-03T04:27:19.346Z,17.56
2022-10-03T04:30:29.673Z,17.22
2022-10-03T04:33:49.130Z,17.16
2022-10-03T04:37:16.104Z,17.24
2022-10-03T04:40:31.793Z,17.64
2022-10-03T04:43:43.858Z,16.87
2022-10-03T04:46:55.385Z,17.01
2022-10-03T04:50:04.232Z,16.70
2022-10-03T04:53:22.871Z,16.53
2022-10-03T04:56:40.347Z,16.72
2022-10-03T04:59:52.662Z,16.52
2022-10-03T05:03:04.775Z,16.52
2022-10-03T05:06:25.890Z,16.89
2022-10-03T05:09:38.485Z,16.96
2022-10-03T05:12:48.375Z,16.61
2022-10-03T05:16:01.597Z,16.76
2022-10-03T05:19:23.847Z,16.77
2022-10-03T05:22:40.309Z,16.46
2022-10-03T05:25:53.515Z,16.43
2022-10-03T05:29:06.118Z,17.11
2022-10-03T05:32:21.185Z,16.74
2022-10-03T05:35:43.755Z,16.83
2022-10-03T05:39:35.257Z,17.02
2022-10-03T05:43:01.600Z,16.31
2022-10-03T05:46:15.538Z,16.58
2022-10-03T05:49:40.415Z,16.70
2022-10-03T05:53:00.420Z,17.19
2022-10-03T05:56:09.580Z,16.87
2022-10-03T05:59:42.606Z,17.00
2022-10-03T06:03:22.934Z,17.31
2022-10-03T06:06:34.735Z,17.37
2022-10-03T06:10:04.489Z,17.65
2022-10-03T06:13:14.688Z,17.63
2022-10-03T06:16:31.759Z,17.75
2022-10-03T06:19:49.722Z,17.87
2022-10-03T06:23:53.865Z,17.64
2022-10-03T06:27:19.283Z,17.39
2022-10-03T06:30:27.243Z,17.37
2022-10-03T06:34:19.604Z,17.79
2022-10-03T06:37:58.076Z,17.54
2022-10-03T06:41:46.597Z,17.96
2022-10-03T06:45:16.543Z,17.42
2022-10-03T06:48:49.850Z,17.83
2022-10-03T06:52:08.485Z,17.85
2022-10-03T06:55:43.148Z,18.18
2022-10-03T06:59:05.397Z,17.73
2022-10-03T07:02:39.765Z,17.70
2022-10-03T07:06:15.249Z,18.37
2022-10-03T07:09:53.895Z,17.96
2022-10-03T07:13:13.259Z,18.70
2022-10-03T07:16:45.902Z,18.63
2022-10-03T07:20:39.324Z,18.71
2022-10-03T07:24:07.287Z,19.16
2022-10-03T07:27:44.489Z,18.61
2022-10-03T07:31:08.104Z,18.74
2022-10-03T07:34:49.574Z,17.92
2022-10-03T07:38:38.484Z,18.48
2022-10-03T07:42:00.171Z,17.77
2022-10-03T07:45:34.785Z,18.38
2022-10-03T07:49:03.478Z,18.18
2022-10-03T07:52:34.710Z,17.95
2022-10-03T07:55:55.650Z,18.25
2022-10-03T07:59:12.754Z,18.44
2022-10-03T08:02:43.049Z,19.25
2022-10-03T08:06:12.618Z,19.06
2022-10-03T08:09:43.429Z,19.20
2022-10-03T08:13:02.465Z,19.40
2022-10-03T08:16:22.374Z,19.58
2022-10-03T08:19:43.130Z,19.20
2022-10-03T08:23:00.457Z,19.11
2022-10-03T08:26:18.125Z,19.30
2022-10-03T08:30:03.484Z,19.31
2022-10-03T08:33:38.207Z,19.65
2022-10-03T08:37:22.102Z,19.31
2022-10-03T08:41:07.180Z,19.74
2022-10-03T08:44:46.730Z,19.11
2022-10-03T08:48:25.028Z,19.31
2022-10-03T08:52:13.242Z,19.81
2022-10-03T08:55:42.860Z,19.08
2022-10-03T08:59:15.204Z,19.28
2022-10-03T09:02:42.066Z,19.76
2022-10-03T09:06:19.495Z,19.61
2022-10-03T09:09:53.619Z,19.74
2022-10-03T09:13:48.177Z,19.94
2022-10-03T09:17:25.776Z,20.20
2022-10-03T09:21:06.963Z,19.57
2022-10-03T09:24:41.588Z,19.70
2022-10-03T09:28:25.313Z,19.81
2022-10-03T09:32:01.713Z,19.45
2022-10-03T09:35:42.777Z,19.13
2022-10-03T09:39:02.117Z,19.93
2022-10-03T09:42:27.824Z,20.49
2022-10-03T09:46:12.115Z,20.96
2022-10-03T09:49:40.292Z,20.90
2022-10-03T09:53:06.934Z,20.61
2022-10-03T09:56:37.333Z,20.22
2022-10-03T09:59:59.712Z,19.80
2022-10-03T10:03:53.202Z,21.01
2022-10-03T10:07:41.979Z,20.37
2022-10-03T10:11:14.915Z,20.46
2022-10-03T10:14:48.455Z,22.00
2022-10-03T10:18:17.295Z,21.53
2022-10-03T10:22:02.339Z,21.74
2022-10-03T10:25:26.668Z,21.93
2022-10-03T10:29:00.022Z,21.56
2022-10-03T10:32:57.027Z,20.96
2022-10-03T10:36:47.949Z,22.65
2022-10-03T10:40:28.816Z,21.56
2022-10-03T10:44:06.299Z,21.79
2022-10-03T10:47:58.379Z,21.63
2022-10-03T10:51:39.262Z,21.51
2022-10-03T10:55:20.455Z,22.16
2022-10-03T10:59:05.405Z,21.65
2022-10-03T11:02:38.133Z,21.40
2022-10-03T11:06:43.475Z,22.18
2022-10-03T11:10:31.057Z,21.69
2022-10-03T11:14:11.092Z,22.09
2022-10-03T11:17:56.267Z,21.73
2022-10-03T11:21:36.591Z,21.71
2022-10-03T11:25:16.143Z,22.72
2022-10-03T11:28:55.238Z,21.81
2022-10-03T11:32:50.038Z,21.77
2022-10-03T11:36:43.233Z,21.93
2022-10-03T11:39:51.004Z,21.58
2022-10-03T11:43:03.117Z,22.07
2022-10-03T11:46:22.241Z,23.41
2022-10-03T11:49:44.828Z,21.52
2022-10-03T11:53:02.948Z,20.51
2022-10-03T11:56:29.776Z,20.82
2022-10-03T12:00:00.389Z,21.29
2022-10-03T12:03:14.455Z,20.78
2022-10-03T12:06:47.491Z,20.01
2022-10-03T12:10:07.287Z,19.47
2022-10-03T12:13:17.157Z,18.85
2022-10-03T12:16:27.793Z,20.03
2022-10-03T12:19:34.602Z,19.52
2022-10-03T12:22:46.706Z,19.96
2022-10-03T12:25:52.464Z,20.19
2022-10-03T12:28:58.698Z,21.10
2022-10-03T12:32:12.376Z,21.98
2022-10-03T12:35:33.353Z,22.02
2022-10-03T12:38:53.040Z,21.45
2022-10-03T12:42:06.136Z,20.78
2022-10-03T12:45:17.492Z,21.19
2022-10-03T12:48:35.392Z,21.18
2022-10-03T12:51:52.220Z,21.55
2022-10-03T12:55:05.954Z,20.56
2022-10-03T12:58:21.104Z,19.89
2022-10-03T13:01:36.310Z,20.64
2022-10-03T13:04:47.671Z,19.59
2022-10-03T13:07:56.747Z,19.26
2022-10-03T13:11:13.259Z,19.07
2022-10-03T13:14:28.232Z,19.57
2022-10-03T13:17:40.863Z,18.67
2022-10-03T13:20:51.144Z,18.55
2022-10-03T13:23:58.610Z,18.33
2022-10-03T13:27:17.105Z,18.42
2022-10-03T13:30:24.116Z,18.88
2022-10-03T13:33:32.292Z,19.84
2022-10-03T13:36:40.822Z,20.12
2022-10-03T13:39:49.620Z,20.67
2022-10-03T13:42:53.590Z,19.27
2022-10-03T13:45:57.958Z,19.96
2022-10-03T13:49:11.880Z,19.40
2022-10-03T13:52:23.636Z,20.05
2022-10-03T13:55:32.699Z,20.09
2022-10-03T13:58:46.485Z,20.61
2022-10-03T14:02:01.009Z,20.77
2022-10-03T14:05:24.740Z,20.17
2022-10-03T14:08:59.146Z,20.14
2022-10-03T14:12:11.306Z,19.90
2022-10-03T14:15:25.291Z,20.07
2022-10-03T14:18:41.358Z,20.18
2022-10-03T14:22:07.961Z,20.26
2022-10-03T14:25:22.428Z,20.19
2022-10-03T14:28:29.448Z,20.61
2022-10-03T14:31:36.496Z,20.69
2022-10-03T14:34:53.133Z,21.30
2022-10-03T14:38:03.204Z,21.60
2022-10-03T14:41:11.375Z,21.79
2022-10-03T14:44:20.129Z,21.39
2022-10-03T14:47:23.908Z,21.15
2022-10-03T14:50:30.103Z,21.75
2022-10-03T14:53:34.635Z,21.29
2022-10-03T14:56:44.374Z,20.45
2022-10-03T14:59:57.862Z,20.29
2022-10-03T15:03:20.522Z,20.11
2022-10-03T15:06:50.298Z,20.51
2022-10-03T15:09:57.602Z,20.14
2022-10-03T15:13:06.255Z,20.36
2022-10-03T15:16:10.495Z,20.59
2022-10-03T15:19:17.810Z,19.92
2022-10-03T15:22:32.594Z,20.60
2022-10-03T15:25:39.469Z,20.64
2022-10-03T15:28:46.075Z,20.42
2022-10-03T15:31:49.904Z,20.11
2022-10-03T15:34:57.988Z,20.54
2022-10-03T15:38:17.428Z,20.99
2022-10-03T15:41:28.040Z,20.32
2022-10-03T15:44:39.036Z,20.75
2022-10-03T15:47:46.531Z,20.38
2022-10-03T15:50:53.130Z,20.25
2022-10-03T15:53:59.606Z,19.97
2022-10-03T15:57:07.093Z,20.07
2022-10-03T16:00:21.564Z,20.16
2022-10-03T16:03:30.045Z,19.83
2022-10-03T16:06:47.538Z,20.19
2022-10-03T16:09:56.299Z,20.33
2022-10-03T16:13:07.856Z,20.10
2022-10-03T16:16:19.950Z,21.10
2022-10-03T16:19:39.387Z,21.20
2022-10-03T16:22:45.479Z,20.77
2022-10-03T16:25:53.725Z,20.67
2022-10-03T16:29:11.687Z,20.60
2022-10-03T16:32:18.528Z,20.69
2022-10-03T16:35:33.692Z,20.57
2022-10-03T16:38:38.474Z,20.01
2022-10-03T16:41:44.011Z,20.06
2022-10-03T16:44:55.365Z,20.45
2022-10-03T16:48:19.414Z,19.91
2022-10-03T16:51:25.740Z,19.88
2022-10-03T16:54:29.068Z,20.08
2022-10-03T16:57:41.124Z,20.18
2022-10-03T17:01:09.409Z,20.27
2022-10-03T17:04:23.634Z,20.23
2022-10-03T17:07:31.671Z,20.67
2022-10-03T17:10:38.076Z,20.45
2022-10-03T17:13:46.881Z,20.42
2022-10-03T17:17:02.707Z,20.07
2022-10-03T17:20:14.085Z,19.87
2022-10-03T17:23:27.740Z,19.84
2022-10-03T17:26:37.574Z,19.95
2022-10-03T17:29:49.043Z,19.59
2022-10-03T17:32:58.081Z,19.26
2022-10-03T17:36:22.979Z,19.42
2022-10-03T17:39:39.942Z,19.54
2022-10-03T17:42:45.487Z,19.43
2022-10-03T17:45:56.343Z,19.80
2022-10-03T17:49:08.024Z,19.71
2022-10-03T17:52:23.489Z,19.60
2022-10-03T17:55:30.640Z,19.26
2022-10-03T17:58:34.409Z,18.72
2022-10-03T18:01:43.335Z,19.12
2022-10-03T18:04:55.441Z,19.17
2022-10-03T18:08:04.240Z,19.19
2022-10-03T18:11:23.656Z,19.25
2022-10-03T18:14:38.285Z,19.44
2022-10-03T18:18:00.281Z,19.47
2022-10-03T18:21:08.685Z,19.78
2022-10-03T18:24:24.927Z,19.82
2022-10-03T18:27:53.335Z,19.70
2022-10-03T18:30:59.860Z,19.67
2022-10-03T18:34:10.358Z,20.20
2022-10-03T18:37:52.561Z,20.61
2022-10-03T18:40:59.332Z,20.61
2022-10-03T18:44:03.105Z,20.14
2022-10-03T18:47:18.553Z,20.50
2022-10-03T18:50:27.528Z,20.66
2022-10-03T18:53:36.336Z,20.69
2022-10-03T18:56:41.770Z,20.04
2022-10-03T18:59:51.644Z,20.76
2022-10-03T19:02:57.464Z,20.43
2022-10-03T19:06:06.032Z,20.77
2022-10-03T19:09:19.618Z,20.22
2022-10-03T19:12:24.639Z,20.60
2022-10-03T19:15:42.573Z,20.33
2022-10-03T19:18:55.419Z,20.23
2022-10-03T19:22:04.096Z,20.14
2022-10-03T19:25:17.366Z,20.41
2022-10-03T19:28:28.287Z,20.05
2022-10-03T19:31:36.486Z,20.27
2022-10-03T19:34:41.119Z,20.22
2022-10-03T19:37:47.290Z,20.36
2022-10-03T19:40:59.064Z,20.32
2022-10-03T19:44:10.734Z,20.43
2022-10-03T19:47:17.992Z,20.48
2022-10-03T19:50:23.036Z,20.32
2022-10-03T19:53:25.630Z,20.25
2022-10-03T19:56:33.300Z,20.47
2022-10-03T19:59:46.304Z,20.34
2022-10-03T20:02:55.311Z,20.20
2022-10-03T20:06:01.447Z,20.37
2022-10-03T20:09:07.235Z,20.50
2022-10-03T20:12:12.284Z,20.67
2022-10-03T20:15:23.119Z,20.36
2022-10-03T20:18:30.251Z,20.25
2022-10-03T20:21:33.813Z,19.93
2022-10-03T20:24:38.922Z,19.94
2022-10-03T20:27:44.255Z,19.61
2022-10-03T20:30:50.542Z,19.70
2022-10-03T20:33:54.620Z,19.52
2022-10-03T20:37:09.606Z,20.01
2022-10-03T20:40:28.004Z,20.17
2022-10-03T20:43:41.673Z,19.56
2022-10-03T20:46:49.782Z,19.54
2022-10-03T20:49:55.599Z,19.96
2022-10-03T20:53:00.779Z,19.81
2022-10-03T20:56:08.311Z,19.89
2022-10-03T20:59:13.883Z,19.81
2022-10-03T21:02:26.834Z,19.82
2022-10-03T21:05:35.413Z,19.57
2022-10-03T21:08:41.223Z,19.53
2022-10-03T21:11:47.710Z,19.32
2022-10-03T21:14:56.892Z,19.52
2022-10-03T21:18:02.213Z,19.82
2022-10-03T21:21:12.266Z,19.76
2022-10-03T21:24:20.578Z,19.63
2022-10-03T21:27:25.133Z,20.11
2022-10-03T21:30:49.698Z,20.20
2022-10-03T21:34:00.863Z,20.54
2022-10-03T21:37:11.463Z,20.37
2022-10-03T21:40:27.253Z,20.30
2022-10-03T21:43:43.007Z,20.14
2022-10-03T21:46:57.365Z,20.11
2022-10-03T21:50:06.210Z,20.62
2022-10-03T21:53:19.177Z,21.12
2022-10-03T21:56:35.198Z,20.65
2022-10-03T21:59:55.942Z,20.97
2022-10-03T22:03:07.700Z,20.68
2022-10-03T22:06:20.031Z,20.78
2022-10-03T22:09:22.718Z,21.10
2022-10-03T22:12:28.960Z,21.05
2022-10-03T22:15:39.904Z,20.76
2022-10-03T22:19:07.584Z,20.86
2022-10-03T22:22:21.392Z,20.68
2022-10-03T22:25:39.115Z,20.60
2022-10-03T22:28:53.274Z,20.81
2022-10-03T22:32:00.775Z,20.57
2022-10-03T22:35:18.126Z,20.74
2022-10-03T22:38:27.553Z,20.57
2022-10-03T22:41:32.024Z,20.76
2022-10-03T22:44:38.096Z,20.53
2022-10-03T22:47:42.297Z,20.60
2022-10-03T22:50:45.730Z,20.84
2022-10-03T22:53:53.980Z,21.16
2022-10-03T22:57:01.200Z,21.33
2022-10-03T23:00:07.971Z,21.37
2022-10-03T23:03:14.908Z,20.87
2022-10-03T23:06:51.681Z,21.14
2022-10-03T23:10:06.060Z,20.63
2022-10-03T23:13:15.661Z,20.37
2022-10-03T23:16:31.879Z,20.99
2022-10-03T23:19:48.876Z,21.44
2022-10-03T23:22:56.852Z,21.04
2022-10-03T23:26:12.591Z,21.08
2022-10-03T23:29:17.618Z,21.15
2022-10-03T23:32:54.442Z,20.97
2022-10-03T23:35:57.075Z,20.86
2022-10-03T23:39:01.324Z,20.93
2022-10-03T23:42:09.676Z,20.51
2022-10-03T23:45:14.733Z,21.12
2022-10-03T23:48:22.192Z,20.99
2022-10-03T23:51:30.251Z,20.88
2022-10-03T23:54:33.632Z,21.00
2022-10-03T23:57:39.640Z,20.87
